createdAt,value
2019-04-23T00:01:16.454Z,46.18
2019-04-23T00:03:34.438Z,46.08
2019-04-23T00:06:15.178Z,46.08
2019-04-23T00:11:17.464Z,45.89
2019-04-23T00:14:05.992Z,46.37
2019-04-23T00:16:42.524Z,46.37
2019-04-23T00:19:10.308Z,46.48
2019-04-23T00:21:55.003Z,46.73
2019-04-23T00:25:39.393Z,46.73
2019-04-23T00:27:35.797Z,46.98
2019-04-23T00:30:01.027Z,46.98
2019-04-23T00:35:05.882Z,47.36
2019-04-23T00:37:54.907Z,47.60
2019-04-23T00:40:19.847Z,47.60
2019-04-23T00:42:53.327Z,47.70
2019-04-23T00:45:32.726Z,47.81
2019-04-23T00:48:01.991Z,47.90
2019-04-23T00:50:52.820Z,47.93
2019-04-23T00:53:17.408Z,47.93
2019-04-23T00:55:47.646Z,48.21
2019-04-23T00:58:22.074Z,48.14
2019-04-23T01:00:45.944Z,48.14
2019-04-23T01:03:17.480Z,48.24
2019-04-23T01:05:50.254Z,48.34
2019-04-23T01:08:20.204Z,48.53
2019-04-23T01:10:59.903Z,48.41
2019-04-23T01:13:36.299Z,48.69
2019-04-23T01:15:54.005Z,48.95
2019-04-23T01:18:38.157Z,48.95
2019-04-23T01:20:53.705Z,48.97
2019-04-23T01:23:37.659Z,49.06
2019-04-23T01:26:21.428Z,49.05
2019-04-23T01:28:57.400Z,48.94
2019-04-23T01:31:28.543Z,49.13
2019-04-23T01:33:55.534Z,49.24
2019-04-23T01:36:28.032Z,49.40
2019-04-23T01:39:01.052Z,49.40
2019-04-23T01:41:28.990Z,49.46
2019-04-23T01:43:51.720Z,49.83
2019-04-23T01:46:29.201Z,49.73
2019-04-23T01:48:58.214Z,49.82
2019-04-23T01:51:33.925Z,50.19
2019-04-23T01:53:58.749Z,50.19
2019-04-23T01:56:30.853Z,50.16
2019-04-23T02:01:31.699Z,50.50
2019-04-23T02:04:06.139Z,50.52
2019-04-23T02:06:33.165Z,50.50
2019-04-23T02:10:04.442Z,50.65
2019-04-23T02:11:34.241Z,50.65
2019-04-23T02:14:05.115Z,50.92
2019-04-23T02:19:03.096Z,51.13
2019-04-23T02:21:41.353Z,51.22
2019-04-23T02:24:03.673Z,51.47
2019-04-23T02:26:36.970Z,51.54
2019-04-23T02:34:21.697Z,51.86
2019-04-23T02:39:11.596Z,52.12
2019-04-23T02:41:54.425Z,52.36
2019-04-23T02:46:51.729Z,52.57
2019-04-23T02:49:27.056Z,52.41
2019-04-23T02:51:51.060Z,52.30
2019-04-23T02:54:38.031Z,52.63
2019-04-23T02:59:51.396Z,52.92
2019-04-23T03:01:57.539Z,53.08
2019-04-23T03:04:26.838Z,53.16
2019-04-23T03:06:55.978Z,53.30
2019-04-23T03:09:27.811Z,53.27
2019-04-23T03:16:58.412Z,53.59
2019-04-23T03:22:09.657Z,53.73
2019-04-23T03:25:07.145Z,53.86
2019-04-23T03:27:34.131Z,54.04
2019-04-23T03:30:12.191Z,54.34
2019-04-23T03:37:42.445Z,54.44
2019-04-23T03:42:42.747Z,54.32
2019-04-23T03:45:27.877Z,54.44
2019-04-23T03:47:37.499Z,54.46
2019-04-23T03:50:15.522Z,54.56
2019-04-23T03:55:11.876Z,55.06
2019-04-23T04:00:15.728Z,55.15
2019-04-23T04:02:54.841Z,55.36
2019-04-23T04:05:10.716Z,55.47
2019-04-23T04:07:53.503Z,55.69
2019-04-23T04:10:11.538Z,55.79
2019-04-23T04:15:18.355Z,56.34
2019-04-23T04:17:35.874Z,56.38
2019-04-23T04:20:19.887Z,56.48
2019-04-23T04:22:50.048Z,56.57
2019-04-23T04:25:21.260Z,56.89
2019-04-23T04:27:54.125Z,57.18
2019-04-23T04:30:19.210Z,57.24
2019-04-23T04:32:54.549Z,57.68
2019-04-23T04:35:22.379Z,57.44
2019-04-23T04:40:23.705Z,57.59
2019-04-23T04:42:48.974Z,57.69
2019-04-23T04:45:25.540Z,57.96
2019-04-23T04:47:44.768Z,58.01
2019-04-23T04:57:58.613Z,58.33
2019-04-23T05:00:27.523Z,58.12
2019-04-23T05:03:03.650Z,58.03
2019-04-23T05:07:48.096Z,58.15
2019-04-23T05:13:09.002Z,58.24
2019-04-23T05:15:28.258Z,57.94
2019-04-23T05:18:20.629Z,57.82
2019-04-23T05:20:28.193Z,58.11
2019-04-23T05:23:09.204Z,58.13
2019-04-23T05:25:24.283Z,58.07
2019-04-23T05:28:03.109Z,58.03
2019-04-23T05:30:31.723Z,57.98
2019-04-23T05:38:10.292Z,57.88
2019-04-23T05:40:37.469Z,57.64
2019-04-23T05:42:58.720Z,57.73
2019-04-23T05:45:31.522Z,57.61
2019-04-23T05:48:06.757Z,57.86
2019-04-23T05:50:54.078Z,58.00
2019-04-23T05:53:01.329Z,57.99
2019-04-23T05:55:29.749Z,57.99
2019-04-23T05:58:03.699Z,57.64
2019-04-23T06:00:32.405Z,57.73
2019-04-23T06:03:08.108Z,57.90
2019-04-23T06:05:42.995Z,57.66
2019-04-23T06:08:07.901Z,57.91
2019-04-23T06:10:34.060Z,57.67
2019-04-23T06:13:06.308Z,57.62
2019-04-23T06:15:36.951Z,57.54
2019-04-23T06:18:08.117Z,57.35
2019-04-23T06:20:45.052Z,57.12
2019-04-23T06:23:18.155Z,57.34
2019-04-23T06:28:09.367Z,56.64
2019-04-23T06:30:48.967Z,56.45
2019-04-23T06:33:14.559Z,56.44
2019-04-23T06:35:41.293Z,56.22
2019-04-23T06:40:41.893Z,56.21
2019-04-23T06:45:45.714Z,56.13
2019-04-23T06:50:51.118Z,55.80
2019-04-23T06:53:14.472Z,55.75
2019-04-23T06:55:51.116Z,55.66
2019-04-23T06:58:25.749Z,55.45
2019-04-23T07:00:48.841Z,55.63
2019-04-23T07:03:25.050Z,55.56
2019-04-23T07:08:56.281Z,55.37
2019-04-23T07:11:18.847Z,55.46
2019-04-23T07:13:50.810Z,55.58
2019-04-23T07:16:22.860Z,55.82
2019-04-23T07:18:40.925Z,55.46
2019-04-23T07:21:15.340Z,55.79
2019-04-23T07:23:44.823Z,55.79
2019-04-23T07:26:26.053Z,55.69
2019-04-23T07:28:51.399Z,55.72
2019-04-23T07:33:52.784Z,55.57
2019-04-23T07:36:19.372Z,55.19
2019-04-23T07:42:03.295Z,54.91
2019-04-23T07:44:58.072Z,54.96
2019-04-23T07:47:42.242Z,54.49
2019-04-23T07:50:26.093Z,54.11
2019-04-23T07:52:51.545Z,53.98
2019-04-23T07:55:21.996Z,54.48
2019-04-23T07:57:49.378Z,54.48
2019-04-23T08:00:20.991Z,53.91
2019-04-23T08:02:44.071Z,52.76
2019-04-23T08:07:49.747Z,53.04
2019-04-23T08:10:15.261Z,52.62
2019-04-23T08:12:48.035Z,52.34
2019-04-23T08:15:23.651Z,52.34
2019-04-23T08:17:43.487Z,52.79
2019-04-23T08:20:21.272Z,52.79
2019-04-23T08:22:48.055Z,52.34
2019-04-23T08:25:35.094Z,51.88
2019-04-23T08:28:07.990Z,51.85
2019-04-23T08:30:32.242Z,51.85
2019-04-23T08:33:03.946Z,51.21
2019-04-23T08:35:37.762Z,51.21
2019-04-23T08:38:21.153Z,51.52
2019-04-23T08:40:54.131Z,51.51
2019-04-23T08:45:59.572Z,50.65
2019-04-23T08:48:32.811Z,50.65
2019-04-23T08:51:09.605Z,50.54
2019-04-23T08:56:03.655Z,49.09
2019-04-23T08:58:30.142Z,48.78
2019-04-23T09:01:05.148Z,46.82
2019-04-23T09:06:06.337Z,45.98
2019-04-23T09:11:19.950Z,45.96
2019-04-23T09:16:05.265Z,45.96
2019-04-23T09:18:33.502Z,45.50
2019-04-23T09:21:12.762Z,45.43
2019-04-23T09:23:45.129Z,45.03
2019-04-23T09:26:03.942Z,44.53
2019-04-23T09:31:55.154Z,45.08
2019-04-23T09:34:08.053Z,45.08
2019-04-23T09:37:00.015Z,44.61
2019-04-23T09:42:09.239Z,44.59
2019-04-23T09:47:41.416Z,44.27
2019-04-23T09:50:13.999Z,43.37
2019-04-23T09:52:41.162Z,43.38
2019-04-23T09:55:16.011Z,43.43
2019-04-23T09:57:33.853Z,43.11
2019-04-23T10:00:12.607Z,43.07
2019-04-23T10:02:27.373Z,43.14
2019-04-23T10:04:55.547Z,43.14
2019-04-23T10:07:26.437Z,43.11
2019-04-23T10:09:40.711Z,42.88
2019-04-23T10:12:09.554Z,43.50
2019-04-23T10:14:38.774Z,42.74
2019-04-23T10:17:08.422Z,42.11
2019-04-23T10:19:37.090Z,42.29
2019-04-23T10:22:07.134Z,41.94
2019-04-23T10:24:37.003Z,42.50
2019-04-23T10:27:06.110Z,41.82
2019-04-23T10:29:38.358Z,42.51
2019-04-23T10:32:07.576Z,42.05
2019-04-23T10:34:47.073Z,41.73
2019-04-23T10:37:07.285Z,41.57
2019-04-23T10:39:40.808Z,42.00
2019-04-23T10:42:07.933Z,41.67
2019-04-23T10:44:44.360Z,41.91
2019-04-23T10:48:07.477Z,42.01
2019-04-23T10:53:27.737Z,41.89
2019-04-23T10:55:51.091Z,41.84
2019-04-23T10:58:16.867Z,41.29
2019-04-23T11:00:44.951Z,42.03
2019-04-23T11:03:37.326Z,41.51
2019-04-23T11:05:50.345Z,41.22
2019-04-23T11:08:11.886Z,41.39
2019-04-23T11:10:46.742Z,40.83
2019-04-23T11:13:25.781Z,40.76
2019-04-23T11:16:08.954Z,40.64
2019-04-23T11:18:31.247Z,40.92
2019-04-23T11:21:07.416Z,40.79
2019-04-23T11:23:23.639Z,40.75
2019-04-23T11:25:48.499Z,40.44
2019-04-23T11:28:26.061Z,39.78
2019-04-23T11:30:57.265Z,40.36
2019-04-23T11:33:35.672Z,40.10
2019-04-23T11:36:35.525Z,40.63
2019-04-23T11:38:50.766Z,39.88
2019-04-23T11:41:00.566Z,39.44
2019-04-23T11:48:52.327Z,39.17
2019-04-23T11:56:13.981Z,38.39
2019-04-23T11:58:35.707Z,38.79
2019-04-23T12:01:40.886Z,39.05
2019-04-23T12:04:05.124Z,39.34
2019-04-23T12:06:32.930Z,38.41
2019-04-23T12:09:09.337Z,38.43
2019-04-23T12:22:15.570Z,40.15
2019-04-23T12:32:43.282Z,38.57
2019-04-23T12:35:01.348Z,38.87
2019-04-23T12:45:29.048Z,37.68
2019-04-23T12:47:58.267Z,37.68
2019-04-23T12:53:05.714Z,37.57
2019-04-23T12:55:24.721Z,36.28
2019-04-23T12:58:05.887Z,37.60
2019-04-23T13:00:22.490Z,37.91
2019-04-23T13:02:52.398Z,38.47
2019-04-23T13:05:21.418Z,37.34
2019-04-23T13:07:54.002Z,36.75
2019-04-23T13:10:38.765Z,36.14
2019-04-23T13:15:22.596Z,36.41
2019-04-23T13:20:23.480Z,37.93
2019-04-23T13:25:48.075Z,35.78
2019-04-23T13:30:54.258Z,35.93
2019-04-23T13:36:03.278Z,36.72
2019-04-23T13:38:27.201Z,36.33
2019-04-23T13:40:59.780Z,35.08
2019-04-23T13:43:29.637Z,35.88
2019-04-23T13:48:18.338Z,35.39
2019-04-23T13:51:01.688Z,35.17
2019-04-23T13:53:40.801Z,35.36
2019-04-23T13:56:04.039Z,35.01
2019-04-23T13:58:43.321Z,35.80
2019-04-23T14:01:28.840Z,35.30
2019-04-23T14:04:04.095Z,35.05
2019-04-23T14:06:37.207Z,35.75
2019-04-23T14:09:14.628Z,35.26
2019-04-23T14:11:40.483Z,35.74
2019-04-23T14:14:34.462Z,37.33
2019-04-23T14:17:16.588Z,36.16
2019-04-23T14:19:21.450Z,37.26
2019-04-23T14:21:51.702Z,35.81
2019-04-23T14:24:45.219Z,34.88
2019-04-23T14:27:09.410Z,36.29
2019-04-23T14:32:22.532Z,36.47
2019-04-23T14:35:04.650Z,36.63
2019-04-23T14:38:01.672Z,36.35
2019-04-23T14:40:26.389Z,34.82
2019-04-23T14:43:06.630Z,35.67
2019-04-23T14:48:11.888Z,37.44
2019-04-23T14:55:56.934Z,37.35
2019-04-23T15:01:13.663Z,37.53
2019-04-23T15:04:19.144Z,36.69
2019-04-23T15:06:54.835Z,36.73
2019-04-23T15:12:02.158Z,36.51
2019-04-23T15:17:03.236Z,37.21
2019-04-23T15:19:47.919Z,36.25
2019-04-23T15:25:05.309Z,37.56
2019-04-23T15:27:15.786Z,37.03
2019-04-23T15:29:48.265Z,37.79
2019-04-23T15:32:34.518Z,36.84
2019-04-23T15:35:05.261Z,36.49
2019-04-23T15:37:45.144Z,37.39
2019-04-23T15:40:01.841Z,36.29
2019-04-23T15:45:01.321Z,36.06
2019-04-23T15:47:32.713Z,37.27
2019-04-23T15:52:39.597Z,39.15
2019-04-23T15:55:01.636Z,38.26
2019-04-23T15:58:05.482Z,38.58
2019-04-23T15:59:58.878Z,37.65
2019-04-23T16:02:04.113Z,38.84
2019-04-23T16:04:33.756Z,39.06
2019-04-23T16:07:02.559Z,39.15
2019-04-23T16:10:04.373Z,40.27
2019-04-23T16:12:25.351Z,40.34
2019-04-23T16:15:03.015Z,39.77
2019-04-23T16:20:14.783Z,39.46
2019-04-23T16:22:38.266Z,40.20
2019-04-23T16:25:17.305Z,40.93
2019-04-23T16:27:36.570Z,40.81
2019-04-23T16:30:17.375Z,39.11
2019-04-23T16:32:57.766Z,40.40
2019-04-23T16:38:10.355Z,40.75
2019-04-23T16:40:36.260Z,40.35
2019-04-23T16:43:07.077Z,40.93
2019-04-23T16:45:31.611Z,42.09
2019-04-23T16:48:07.453Z,42.01
2019-04-23T16:53:07.284Z,41.95
2019-04-23T16:55:29.405Z,43.17
2019-04-23T16:58:01.574Z,43.95
2019-04-23T17:00:30.552Z,42.96
2019-04-23T17:03:16.014Z,44.71
2019-04-23T17:05:39.585Z,42.65
2019-04-23T17:08:32.610Z,42.84
2019-04-23T17:10:36.675Z,43.31
2019-04-23T17:13:17.566Z,42.99
2019-04-23T17:15:46.368Z,42.93
2019-04-23T17:18:11.504Z,42.96
2019-04-23T17:23:16.919Z,43.55
2019-04-23T17:25:41.906Z,43.16
2019-04-23T17:28:20.145Z,44.00
2019-04-23T17:30:52.369Z,44.32
2019-04-23T17:36:18.517Z,43.94
2019-04-23T17:38:49.429Z,43.23
2019-04-23T17:41:44.004Z,42.98
2019-04-23T17:46:39.114Z,43.54
2019-04-23T17:49:04.533Z,44.26
2019-04-23T17:51:37.759Z,44.40
2019-04-23T17:54:22.525Z,43.37
2019-04-23T17:56:59.990Z,44.25
2019-04-23T17:59:25.366Z,45.46
2019-04-23T18:02:16.447Z,46.17
2019-04-23T18:04:38.724Z,46.62
2019-04-23T18:07:06.189Z,46.84
2019-04-23T18:09:48.807Z,47.72
2019-04-23T18:12:25.422Z,47.73
2019-04-23T18:14:50.875Z,47.96
2019-04-23T18:17:26.721Z,48.07
2019-04-23T18:20:19.355Z,48.34
2019-04-23T18:25:37.466Z,48.88
2019-04-23T18:28:01.786Z,49.78
2019-04-23T18:31:06.068Z,49.87
2019-04-23T18:36:25.493Z,50.23
2019-04-23T18:39:22.263Z,50.58
2019-04-23T18:42:02.266Z,51.05
2019-04-23T18:44:36.505Z,51.11
2019-04-23T18:47:07.626Z,51.38
2019-04-23T18:52:48.451Z,51.82
2019-04-23T18:55:35.005Z,52.16
2019-04-23T18:57:57.291Z,52.72
2019-04-23T19:00:53.632Z,53.01
2019-04-23T19:03:57.480Z,54.20
2019-04-23T19:06:32.612Z,54.04
2019-04-23T19:14:47.966Z,56.89
2019-04-23T19:19:48.380Z,56.83
2019-04-23T19:22:27.335Z,57.30
2019-04-23T19:24:53.454Z,57.03
2019-04-23T19:27:47.295Z,57.36
2019-04-23T19:30:09.342Z,57.19
2019-04-23T19:33:32.335Z,57.69
2019-04-23T19:36:28.187Z,57.93
2019-04-23T19:38:56.065Z,58.32
2019-04-23T19:41:47.533Z,58.20
2019-04-23T19:44:01.232Z,59.72
2019-04-23T19:46:50.575Z,59.53
2019-04-23T19:49:13.268Z,60.03
2019-04-23T19:51:53.636Z,61.03
2019-04-23T20:02:33.867Z,62.93
2019-04-23T20:04:46.092Z,61.93
2019-04-23T20:07:22.674Z,61.81
2019-04-23T20:09:55.187Z,61.92
2019-04-23T20:12:36.900Z,62.25
2019-04-23T20:15:00.192Z,64.14
2019-04-23T20:20:04.406Z,63.21
2019-04-23T20:22:51.183Z,64.52
2019-04-23T20:25:56.960Z,64.59
2019-04-23T20:28:41.091Z,64.86
2019-04-23T20:31:16.207Z,65.63
2019-04-23T20:36:59.514Z,65.22
2019-04-23T20:42:27.249Z,65.26
2019-04-23T20:45:04.830Z,65.05
2019-04-23T20:48:01.943Z,66.74
2019-04-23T20:50:27.743Z,67.25
2019-04-23T20:52:51.515Z,67.79
2019-04-23T20:55:48.092Z,67.51
2019-04-23T20:58:20.902Z,66.83
2019-04-23T21:01:13.285Z,66.83
2019-04-23T21:12:04.888Z,68.80
2019-04-23T21:14:48.495Z,68.59
2019-04-23T21:17:07.370Z,69.45
2019-04-23T21:20:01.535Z,69.29
2019-04-23T21:22:17.378Z,71.65
2019-04-23T21:24:54.665Z,70.43
2019-04-23T21:27:55.330Z,71.58
2019-04-23T21:34:06.049Z,70.46
2019-04-23T21:36:57.551Z,71.14
2019-04-23T21:40:04.774Z,71.29
2019-04-23T21:42:32.712Z,71.17
2019-04-23T21:45:02.571Z,71.17
2019-04-23T21:50:12.307Z,71.43
2019-04-23T21:52:51.045Z,72.08
2019-04-23T21:55:15.633Z,72.08
2019-04-23T21:57:53.822Z,66.86
2019-04-23T22:00:19.124Z,69.76
2019-04-23T22:03:18.114Z,71.24
2019-04-23T22:05:49.653Z,70.76
2019-04-23T22:08:43.820Z,70.76
2019-04-23T22:14:34.095Z,70.83
2019-04-23T22:17:25.922Z,70.83
2019-04-23T22:20:06.080Z,70.65
2019-04-23T22:22:44.191Z,70.30
2019-04-23T22:25:11.015Z,69.15
2019-04-23T22:27:52.920Z,69.15
2019-04-23T22:30:25.849Z,68.91
2019-04-23T22:35:35.103Z,70.82
2019-04-23T22:40:34.489Z,70.96
2019-04-23T22:48:46.135Z,66.44
2019-04-23T22:51:21.391Z,67.98
2019-04-23T22:56:51.822Z,67.16
2019-04-23T23:02:07.785Z,67.09
2019-04-23T23:04:54.549Z,68.23
2019-04-23T23:07:19.742Z,69.10
2019-04-23T23:12:31.768Z,70.48
2019-04-23T23:15:05.245Z,71.41
2019-04-23T23:17:41.988Z,71.41
2019-04-23T23:20:14.017Z,70.65
2019-04-23T23:23:06.474Z,70.65
2019-04-23T23:25:23.371Z,69.33
2019-04-23T23:28:05.968Z,71.05
2019-04-23T23:30:33.765Z,70.91
2019-04-23T23:33:13.329Z,70.71
2019-04-23T23:35:44.504Z,65.53
2019-04-23T23:38:24.062Z,66.05
2019-04-23T23:41:14.143Z,66.05
2019-04-23T23:43:54.993Z,67.69
2019-04-23T23:48:51.318Z,65.20
2019-04-23T23:54:13.329Z,64.57
2019-04-23T23:56:40.089Z,64.57
2019-04-23T23:59:10.409Z,63.22
